Time;durP1;ratioP1;P1;durP2;ratioP2;P2;SDS_P1;SDS_P2;PMS_P1;PMS_P2;Temp;Humidity;BMP_temperature;BMP_pressure;BME280_temperature;BME280_humidity;BME280_pressure;Samples;Min_cycle;Max_cycle;Signal;HPM_P1;HPM_P2
2023/01/07 00:03:20;;;;;;;1.48;1.45;;;;;;;;;;10351525;28;20904;-75
2023/01/07 00:08:21;;;;;;;2.20;1.48;;;;;;;;;;10342945;28;20227;-75
2023/01/07 00:13:22;;;;;;;1.58;1.48;;;;;;;;;;10338998;28;20217;-75
2023/01/07 00:18:23;;;;;;;1.48;1.40;;;;;;;;;;10343110;28;20366;-75
2023/01/07 00:23:25;;;;;;;2.95;1.80;;;;;;;;;;10338181;28;20261;-74
2023/01/07 00:28:26;;;;;;;1.73;1.63;;;;;;;;;;10339460;28;20294;-74
2023/01/07 00:33:27;;;;;;;1.35;1.17;;;;;;;;;;10329163;28;20226;-74
2023/01/07 00:38:28;;;;;;;1.45;1.35;;;;;;;;;;10339924;28;20295;-74
2023/01/07 00:43:29;;;;;;;1.42;1.33;;;;;;;;;;10334699;28;20247;-74
2023/01/07 00:48:30;;;;;;;1.23;1.23;;;;;;;;;;10337678;28;20222;-74
2023/01/07 00:53:31;;;;;;;2.28;1.63;;;;;;;;;;10353888;28;20226;-74
2023/01/07 00:58:32;;;;;;;1.60;1.60;;;;;;;;;;10336420;28;20221;-74
2023/01/07 01:03:34;;;;;;;1.35;1.33;;;;;;;;;;10338960;28;20234;-74
2023/01/07 01:08:35;;;;;;;1.65;1.55;;;;;;;;;;10358119;28;21700;-74
2023/01/07 01:13:36;;;;;;;1.40;1.38;;;;;;;;;;10362986;28;20297;-74
2023/01/07 01:18:38;;;;;;;1.02;1.02;;;;;;;;;;10334624;28;20212;-74
2023/01/07 01:23:39;;;;;;;1.98;1.33;;;;;;;;;;10369332;28;20987;-74
2023/01/07 01:28:42;;;;;;;1.73;1.63;;;;;;;;;;10336046;28;20212;-74
2023/01/07 01:33:44;;;;;;;1.70;1.60;;;;;;;;;;10334551;28;20859;-76
2023/01/07 01:38:45;;;;;;;1.13;1.13;;;;;;;;;;10365396;28;20279;-74
2023/01/07 01:43:46;;;;;;;1.25;1.02;;;;;;;;;;10333456;28;20693;-75
2023/01/07 01:48:53;;;;;;;1.20;1.17;;;;;;;;;;10334619;28;20275;-74
2023/01/07 01:53:55;;;;;;;0.90;0.90;;;;;;;;;;10330964;28;20216;-75
2023/01/07 01:59:01;;;;;;;1.10;1.10;;;;;;;;;;10335878;28;20699;-75
2023/01/07 02:04:14;;;;;;;1.00;1.00;;;;;;;;;;10332585;28;20303;-75
2023/01/07 02:09:15;;;;;;;1.40;1.38;;;;;;;;;;10365212;28;20216;-75
2023/01/07 02:14:33;;;;;;;1.20;1.20;;;;;;;;;;10365848;28;20215;-75
2023/01/07 02:19:47;;;;;;;1.30;1.30;;;;;;;;;;10346546;28;20243;-75
2023/01/07 02:24:48;;;;;;;1.40;1.40;;;;;;;;;;10331369;28;20220;-75
2023/01/07 02:30:18;;;;;;;1.40;1.40;;;;;;;;;;10352377;28;20220;-75
2023/01/07 02:35:46;;;;;;;1.83;1.73;;;;;;;;;;10333000;28;20220;-75
2023/01/07 02:40:55;;;;;;;2.25;2.15;;;;;;;;;;10326389;28;20797;-75
2023/01/07 02:45:56;;;;;;;1.92;1.83;;;;;;;;;;10347761;28;20558;-75
2023/01/07 02:50:57;;;;;;;2.10;2.00;;;;;;;;;;10334710;28;20311;-75
2023/01/07 02:56:27;;;;;;;2.50;1.70;;;;;;;;;;10362518;28;20209;-76
2023/01/07 03:01:58;;;;;;;1.77;1.77;;;;;;;;;;10313614;28;20873;-75
2023/01/07 03:07:02;;;;;;;1.88;1.77;;;;;;;;;;10275985;28;20282;-75
2023/01/07 03:12:15;;;;;;;2.00;1.90;;;;;;;;;;10355954;28;20216;-75
2023/01/07 03:17:25;;;;;;;1.20;1.20;;;;;;;;;;10371191;28;20212;-75
2023/01/07 03:22:28;;;;;;;1.17;1.17;;;;;;;;;;10336027;28;20255;-75
2023/01/07 03:27:30;;;;;;;2.13;1.42;;;;;;;;;;10334311;28;20220;-75
2023/01/07 03:32:37;;;;;;;1.30;1.20;;;;;;;;;;10350999;28;21148;-75
2023/01/07 03:37:39;;;;;;;1.17;1.15;;;;;;;;;;10336153;28;20242;-75
2023/01/07 03:42:41;;;;;;;0.85;0.85;;;;;;;;;;10335476;28;20307;-75
2023/01/07 03:47:53;;;;;;;1.23;1.23;;;;;;;;;;10353178;28;20617;-75
2023/01/07 03:52:54;;;;;;;1.10;1.10;;;;;;;;;;10364689;28;20220;-75
2023/01/07 03:57:58;;;;;;;1.73;1.58;;;;;;;;;;10354321;28;20307;-75
2023/01/07 04:03:00;;;;;;;1.70;1.60;;;;;;;;;;10359606;28;20209;-75
2023/01/07 04:08:09;;;;;;;1.80;1.70;;;;;;;;;;10339108;28;20778;-75
2023/01/07 04:13:13;;;;;;;1.10;1.10;;;;;;;;;;10340291;28;20205;-75
2023/01/07 04:18:17;;;;;;;1.55;1.55;;;;;;;;;;10338042;28;20221;-75
2023/01/07 04:23:18;;;;;;;1.58;1.50;;;;;;;;;;10324830;28;20224;-75
2023/01/07 04:28:22;;;;;;;1.45;1.45;;;;;;;;;;10347033;28;20759;-74
2023/01/07 04:33:23;;;;;;;1.58;1.20;;;;;;;;;;10340703;28;20698;-75
2023/01/07 04:38:25;;;;;;;0.98;0.98;;;;;;;;;;10333839;28;20220;-75
2023/01/07 04:43:28;;;;;;;1.20;1.20;;;;;;;;;;10333488;28;20607;-75
2023/01/07 04:48:29;;;;;;;0.88;0.88;;;;;;;;;;10331413;28;20305;-75
2023/01/07 04:53:31;;;;;;;0.70;0.70;;;;;;;;;;10360405;28;20299;-75
2023/01/07 04:58:32;;;;;;;0.98;0.98;;;;;;;;;;10333256;28;21182;-74
2023/01/07 05:03:33;;;;;;;1.02;1.02;;;;;;;;;;10351178;28;20727;-75
2023/01/07 05:08:35;;;;;;;0.88;0.88;;;;;;;;;;10335699;28;20219;-74
2023/01/07 05:13:37;;;;;;;0.70;0.70;;;;;;;;;;10337624;28;20778;-75
2023/01/07 05:18:39;;;;;;;0.82;0.82;;;;;;;;;;10335185;28;20779;-74
2023/01/07 05:23:41;;;;;;;1.45;0.80;;;;;;;;;;10335030;28;20651;-75
2023/01/07 05:28:42;;;;;;;0.55;0.55;;;;;;;;;;10317578;28;20988;-74
2023/01/07 05:33:44;;;;;;;0.65;0.65;;;;;;;;;;10350406;28;20255;-73
2023/01/07 05:38:45;;;;;;;0.70;0.70;;;;;;;;;;10361795;28;20235;-74
2023/01/07 05:43:46;;;;;;;0.52;0.52;;;;;;;;;;10339471;28;20306;-74
2023/01/07 05:48:47;;;;;;;0.50;0.50;;;;;;;;;;10333707;28;20241;-74
2023/01/07 05:53:48;;;;;;;0.80;0.80;;;;;;;;;;10336727;28;20219;-74
2023/01/07 05:58:49;;;;;;;0.85;0.85;;;;;;;;;;10331009;28;20208;-74
2023/01/07 06:03:50;;;;;;;0.80;0.80;;;;;;;;;;10348681;28;20220;-75
2023/01/07 06:08:51;;;;;;;0.75;0.75;;;;;;;;;;10323435;28;20216;-74
2023/01/07 06:13:52;;;;;;;0.90;0.90;;;;;;;;;;10345982;28;20231;-74
2023/01/07 06:18:53;;;;;;;1.15;1.15;;;;;;;;;;10330161;28;20223;-75
2023/01/07 06:23:55;;;;;;;2.05;1.95;;;;;;;;;;10349270;28;20232;-75
2023/01/07 06:28:56;;;;;;;1.85;1.75;;;;;;;;;;10349748;28;20635;-75
2023/01/07 06:33:57;;;;;;;1.38;1.38;;;;;;;;;;10322318;28;20301;-74
2023/01/07 06:38:58;;;;;;;1.30;1.23;;;;;;;;;;10317743;28;20230;-75
2023/01/07 06:43:59;;;;;;;1.08;1.08;;;;;;;;;;10333587;28;20674;-74
2023/01/07 06:49:00;;;;;;;1.27;1.17;;;;;;;;;;10325182;28;21151;-74
2023/01/07 06:54:02;;;;;;;0.75;0.75;;;;;;;;;;10342169;28;20243;-74
2023/01/07 06:59:03;;;;;;;0.75;0.75;;;;;;;;;;10329006;28;20254;-74
2023/01/07 07:04:04;;;;;;;1.15;1.15;;;;;;;;;;10327350;28;20347;-74
2023/01/07 07:09:05;;;;;;;1.30;1.10;;;;;;;;;;10329198;28;20208;-74
2023/01/07 07:14:06;;;;;;;1.15;1.13;;;;;;;;;;10331569;28;20224;-75
2023/01/07 07:19:07;;;;;;;1.40;1.40;;;;;;;;;;10317376;28;21214;-74
2023/01/07 07:24:09;;;;;;;1.58;1.58;;;;;;;;;;10331912;28;20240;-74
2023/01/07 07:29:10;;;;;;;1.40;1.40;;;;;;;;;;10324765;28;20217;-74
2023/01/07 07:34:11;;;;;;;1.52;1.45;;;;;;;;;;10323088;28;20731;-73
2023/01/07 07:39:12;;;;;;;1.83;1.83;;;;;;;;;;10329759;28;20290;-72
2023/01/07 07:44:13;;;;;;;2.33;2.22;;;;;;;;;;10326940;28;20262;-74
2023/01/07 07:49:14;;;;;;;1.98;1.88;;;;;;;;;;10327434;28;20220;-74
2023/01/07 07:54:15;;;;;;;1.98;1.98;;;;;;;;;;10326792;28;20255;-75
2023/01/07 07:59:16;;;;;;;2.58;2.40;;;;;;;;;;10330148;28;20273;-73
2023/01/07 08:04:17;;;;;;;3.40;3.13;;;;;;;;;;10330101;28;20223;-75
2023/01/07 08:09:18;;;;;;;3.20;3.00;;;;;;;;;;10332517;28;20235;-75
2023/01/07 08:14:19;;;;;;;3.38;3.08;;;;;;;;;;10330555;28;20662;-74
2023/01/07 08:19:20;;;;;;;2.70;2.60;;;;;;;;;;10337655;28;20216;-74
2023/01/07 08:24:22;;;;;;;2.95;2.75;;;;;;;;;;10327722;28;20223;-74
2023/01/07 08:29:23;;;;;;;3.15;2.83;;;;;;;;;;10328369;28;20239;-75
2023/01/07 08:34:24;;;;;;;3.60;3.30;;;;;;;;;;10331744;28;20347;-74
2023/01/07 08:39:25;;;;;;;3.42;3.22;;;;;;;;;;10327761;28;20230;-74
2023/01/07 08:44:26;;;;;;;2.90;2.78;;;;;;;;;;10327857;28;20271;-74
2023/01/07 08:49:27;;;;;;;3.85;3.40;;;;;;;;;;10330576;28;21030;-76
2023/01/07 08:54:30;;;;;;;4.05;3.50;;;;;;;;;;10337190;28;20990;-76
2023/01/07 08:59:32;;;;;;;3.53;3.33;;;;;;;;;;10334574;28;20784;-76
2023/01/07 09:04:33;;;;;;;3.15;2.95;;;;;;;;;;10349291;28;20216;-76
2023/01/07 09:09:34;;;;;;;3.50;3.30;;;;;;;;;;10354330;28;20227;-77
2023/01/07 09:14:38;;;;;;;3.58;3.28;;;;;;;;;;10336773;28;20671;-77
2023/01/07 09:19:39;;;;;;;3.42;3.20;;;;;;;;;;10344419;28;20726;-77
2023/01/07 09:24:40;;;;;;;3.28;3.08;;;;;;;;;;10338519;28;20220;-75
2023/01/07 09:29:41;;;;;;;4.25;3.85;;;;;;;;;;10333808;28;20713;-75
2023/01/07 09:34:42;;;;;;;8.93;7.05;;;;;;;;;;10334118;28;20773;-75
2023/01/07 09:39:43;;;;;;;7.72;5.68;;;;;;;;;;10324336;28;20270;-76
2023/01/07 09:44:53;;;;;;;4.55;4.15;;;;;;;;;;10329052;28;20224;-76
2023/01/07 09:50:01;;;;;;;4.53;3.90;;;;;;;;;;10350033;28;20212;-75
2023/01/07 09:55:10;;;;;;;3.25;3.05;;;;;;;;;;10365333;28;20243;-77
2023/01/07 10:00:19;;;;;;;3.70;3.40;;;;;;;;;;10349832;28;20274;-75
2023/01/07 10:05:29;;;;;;;3.50;3.30;;;;;;;;;;10333188;28;20211;-76
2023/01/07 10:10:31;;;;;;;3.58;3.28;;;;;;;;;;10333871;28;20258;-76
2023/01/07 10:15:48;;;;;;;4.03;3.28;;;;;;;;;;10337322;28;20817;-77
2023/01/07 10:20:53;;;;;;;3.45;3.20;;;;;;;;;;10335263;28;20211;-77
2023/01/07 10:25:55;;;;;;;3.40;3.10;;;;;;;;;;10349280;28;20250;-77
2023/01/07 10:30:57;;;;;;;3.08;2.88;;;;;;;;;;10329660;28;20220;-77
2023/01/07 10:36:17;;;;;;;2.22;2.13;;;;;;;;;;10337787;28;20815;-76
2023/01/07 10:41:25;;;;;;;1.42;1.40;;;;;;;;;;10332241;28;20254;-76
2023/01/07 10:46:44;;;;;;;1.20;1.20;;;;;;;;;;10333281;28;20274;-76
2023/01/07 10:51:45;;;;;;;1.00;1.00;;;;;;;;;;10330865;28;20884;-77
2023/01/07 10:56:49;;;;;;;0.70;0.70;;;;;;;;;;10332479;28;20330;-77
2023/01/07 11:01:51;;;;;;;0.90;0.70;;;;;;;;;;10327369;28;20540;-76
2023/01/07 11:07:10;;;;;;;0.63;0.63;;;;;;;;;;10329097;28;20338;-77
2023/01/07 11:12:20;;;;;;;0.63;0.40;;;;;;;;;;10336949;28;20228;-77
2023/01/07 11:17:40;;;;;;;0.32;0.32;;;;;;;;;;10329909;28;20217;-77
2023/01/07 11:22:41;;;;;;;0.30;0.30;;;;;;;;;;10332187;28;20323;-76
2023/01/07 11:27:45;;;;;;;0.30;0.30;;;;;;;;;;10335358;28;20219;-76
2023/01/07 11:32:53;;;;;;;0.95;0.30;;;;;;;;;;10362882;28;20928;-75
2023/01/07 11:37:55;;;;;;;0.45;0.30;;;;;;;;;;10348321;28;22145;-75
2023/01/07 11:42:56;;;;;;;0.30;0.30;;;;;;;;;;10333620;28;20244;-75
2023/01/07 11:47:59;;;;;;;0.47;0.47;;;;;;;;;;10333632;28;20246;-76
2023/01/07 11:53:02;;;;;;;0.30;0.30;;;;;;;;;;10334062;28;20565;-76
2023/01/07 11:58:05;;;;;;;0.30;0.30;;;;;;;;;;10328162;28;20348;-76
2023/01/07 12:03:11;;;;;;;0.40;0.40;;;;;;;;;;10347225;28;20212;-75
2023/01/07 12:08:19;;;;;;;0.30;0.30;;;;;;;;;;10331433;28;20927;-75
2023/01/07 12:13:24;;;;;;;0.20;0.20;;;;;;;;;;10336624;28;20672;-75
2023/01/07 12:18:43;;;;;;;0.40;0.40;;;;;;;;;;10357768;28;20227;-75
2023/01/07 12:23:53;;;;;;;0.30;0.30;;;;;;;;;;10333808;28;20224;-76
2023/01/07 12:28:54;;;;;;;0.45;0.40;;;;;;;;;;10326603;28;20294;-75
2023/01/07 12:34:04;;;;;;;0.20;0.20;;;;;;;;;;10330980;28;20249;-76
2023/01/07 12:39:10;;;;;;;0.20;0.20;;;;;;;;;;10323733;28;20219;-76
2023/01/07 12:44:15;;;;;;;0.20;0.20;;;;;;;;;;10332376;28;20235;-76
2023/01/07 12:49:25;;;;;;;0.15;0.15;;;;;;;;;;10359131;28;20250;-75
2023/01/07 12:54:38;;;;;;;0.20;0.20;;;;;;;;;;10327916;28;20294;-75
2023/01/07 12:59:41;;;;;;;0.10;0.10;;;;;;;;;;10335633;28;20219;-76
2023/01/07 13:04:42;;;;;;;0.20;0.10;;;;;;;;;;10331300;28;20231;-76
2023/01/07 13:10:02;;;;;;;0.10;0.10;;;;;;;;;;10332387;28;20220;-76
2023/01/07 13:15:08;;;;;;;0.20;0.20;;;;;;;;;;10330454;28;20217;-76
2023/01/07 13:20:12;;;;;;;0.20;0.20;;;;;;;;;;10329439;28;20304;-75
2023/01/07 13:25:34;;;;;;;0.22;0.22;;;;;;;;;;10334157;28;20256;-76
2023/01/07 13:30:50;;;;;;;0.20;0.20;;;;;;;;;;10324537;28;20830;-75
2023/01/07 13:35:59;;;;;;;0.20;0.20;;;;;;;;;;10332270;28;20299;-76
2023/01/07 13:41:06;;;;;;;0.47;0.20;;;;;;;;;;10335869;28;20228;-76
2023/01/07 13:46:15;;;;;;;0.20;0.20;;;;;;;;;;10336745;28;20223;-77
2023/01/07 13:51:24;;;;;;;0.10;0.10;;;;;;;;;;10330608;28;20231;-76
2023/01/07 13:56:26;;;;;;;0.10;0.10;;;;;;;;;;10344865;28;20217;-76
2023/01/07 14:01:27;;;;;;;0.10;0.10;;;;;;;;;;10331267;28;20215;-76
2023/01/07 14:06:28;;;;;;;0.10;0.10;;;;;;;;;;10345670;28;20316;-76
2023/01/07 14:11:29;;;;;;;0.10;0.10;;;;;;;;;;10328219;28;20223;-76
2023/01/07 14:16:33;;;;;;;0.20;0.20;;;;;;;;;;10339097;28;20219;-76
2023/01/07 14:21:37;;;;;;;5.15;0.30;;;;;;;;;;10322193;28;20260;-76
2023/01/07 14:26:53;;;;;;;0.20;0.20;;;;;;;;;;10330019;28;20251;-76
2023/01/07 14:32:17;;;;;;;1.65;0.28;;;;;;;;;;10319170;28;20219;-76
2023/01/07 14:37:27;;;;;;;1.58;0.30;;;;;;;;;;10323061;28;20222;-76
2023/01/07 14:42:38;;;;;;;0.20;0.20;;;;;;;;;;10334481;28;20224;-76
2023/01/07 14:47:45;;;;;;;0.30;0.30;;;;;;;;;;10330211;28;20323;-76
2023/01/07 14:52:49;;;;;;;0.20;0.20;;;;;;;;;;10334918;28;20571;-76
2023/01/07 14:58:02;;;;;;;0.10;0.10;;;;;;;;;;10337287;28;20307;-77
2023/01/07 15:03:09;;;;;;;0.40;0.40;;;;;;;;;;10345467;28;20243;-76
2023/01/07 15:18:56;;;;;;;0.30;0.30;;;;;;;;;;10354532;28;20228;-75
2023/01/07 15:23:57;;;;;;;0.60;0.60;;;;;;;;;;10341011;28;20326;-76
2023/01/07 15:29:04;;;;;;;0.50;0.50;;;;;;;;;;10340380;28;20688;-76
2023/01/07 15:34:12;;;;;;;0.50;0.50;;;;;;;;;;10339177;28;20261;-74
2023/01/07 15:39:22;;;;;;;0.98;0.98;;;;;;;;;;10354982;28;21098;-73
2023/01/07 15:44:24;;;;;;;0.63;0.50;;;;;;;;;;10372081;28;20220;-75
2023/01/07 15:49:28;;;;;;;1.13;0.50;;;;;;;;;;10340341;28;20225;-76
2023/01/07 15:54:33;;;;;;;0.40;0.40;;;;;;;;;;10335406;28;20303;-76
2023/01/07 15:59:36;;;;;;;0.40;0.40;;;;;;;;;;10340454;28;20212;-76
2023/01/07 16:04:37;;;;;;;0.50;0.50;;;;;;;;;;10341654;28;20220;-75
2023/01/07 16:09:38;;;;;;;1.60;0.82;;;;;;;;;;10353788;28;20221;-76
2023/01/07 16:14:39;;;;;;;1.58;1.17;;;;;;;;;;10351466;28;20223;-76
2023/01/07 16:19:41;;;;;;;1.05;0.70;;;;;;;;;;10339596;28;20294;-76
2023/01/07 16:24:47;;;;;;;0.85;0.70;;;;;;;;;;10319914;28;20300;-76
2023/01/07 16:29:52;;;;;;;0.30;0.30;;;;;;;;;;10336441;28;20217;-76
2023/01/07 16:35:04;;;;;;;0.30;0.30;;;;;;;;;;10341359;28;20223;-76
2023/01/07 16:40:09;;;;;;;0.50;0.50;;;;;;;;;;10369052;28;20251;-75
2023/01/07 16:45:21;;;;;;;0.40;0.40;;;;;;;;;;10336965;28;20208;-75
2023/01/07 16:50:22;;;;;;;0.57;0.57;;;;;;;;;;10339319;28;20228;-75
2023/01/07 16:55:44;;;;;;;0.43;0.35;;;;;;;;;;10336220;28;21145;-76
2023/01/07 17:00:50;;;;;;;1.65;0.90;;;;;;;;;;10348030;28;20212;-75
2023/01/07 17:05:59;;;;;;;1.55;0.60;;;;;;;;;;10320028;28;20819;-73
2023/01/07 17:11:04;;;;;;;0.57;0.52;;;;;;;;;;10327175;28;20235;-77
2023/01/07 17:16:34;;;;;;;0.77;0.63;;;;;;;;;;10314777;28;20259;-76
2023/01/07 17:21:35;;;;;;;0.68;0.47;;;;;;;;;;10327296;28;20311;-77
2023/01/07 17:26:36;;;;;;;0.63;0.63;;;;;;;;;;10336394;28;20618;-77
2023/01/07 17:31:40;;;;;;;0.65;0.65;;;;;;;;;;10338737;28;20220;-77
2023/01/07 17:36:41;;;;;;;0.55;0.55;;;;;;;;;;10333129;28;20212;-77
2023/01/07 17:47:02;;;;;;;1.30;0.60;;;;;;;;;;10335465;28;20270;-77
2023/01/07 17:52:03;;;;;;;0.60;0.60;;;;;;;;;;10314686;28;20682;-76
2023/01/07 17:57:04;;;;;;;0.70;0.70;;;;;;;;;;10338765;28;20216;-76
2023/01/07 18:02:05;;;;;;;0.70;0.70;;;;;;;;;;10340190;28;20212;-76
2023/01/07 18:07:08;;;;;;;0.90;0.90;;;;;;;;;;10337181;28;20226;-74
2023/01/07 18:12:33;;;;;;;0.98;0.98;;;;;;;;;;10332518;28;20299;-76
2023/01/07 18:17:34;;;;;;;1.75;1.70;;;;;;;;;;10335803;28;20767;-77
2023/01/07 18:22:35;;;;;;;1.70;1.70;;;;;;;;;;10333613;28;20240;-76
2023/01/07 18:27:36;;;;;;;3.08;2.08;;;;;;;;;;10336566;28;21037;-76
2023/01/07 18:32:37;;;;;;;1.92;1.83;;;;;;;;;;10332847;28;20212;-77
2023/01/07 18:37:38;;;;;;;4.13;3.70;;;;;;;;;;10334648;28;20251;-76
2023/01/07 18:42:39;;;;;;;4.55;3.00;;;;;;;;;;10335182;28;20216;-76
2023/01/07 18:47:44;;;;;;;3.95;3.58;;;;;;;;;;10332705;28;20311;-76
2023/01/07 18:52:45;;;;;;;2.88;2.78;;;;;;;;;;10333705;28;20332;-76
2023/01/07 18:57:46;;;;;;;2.35;2.20;;;;;;;;;;10336506;28;20255;-76
2023/01/07 19:02:48;;;;;;;3.17;2.97;;;;;;;;;;10333602;28;20215;-76
2023/01/07 19:07:49;;;;;;;3.03;2.83;;;;;;;;;;10330150;28;21152;-76
2023/01/07 19:12:50;;;;;;;3.45;3.15;;;;;;;;;;10337804;28;20299;-76
2023/01/07 19:17:51;;;;;;;3.20;2.97;;;;;;;;;;10331172;28;20227;-76
2023/01/07 19:22:58;;;;;;;3.85;3.55;;;;;;;;;;10334324;28;20715;-76
2023/01/07 19:27:59;;;;;;;3.55;3.25;;;;;;;;;;10348568;28;20731;-76
2023/01/07 19:33:00;;;;;;;4.25;3.00;;;;;;;;;;10329837;28;20217;-77
2023/01/07 19:38:01;;;;;;;3.75;3.55;;;;;;;;;;10369049;28;20239;-76
2023/01/07 19:43:02;;;;;;;4.38;3.83;;;;;;;;;;10335656;28;20298;-76
2023/01/07 19:48:03;;;;;;;7.90;4.05;;;;;;;;;;10341799;28;20354;-76
2023/01/07 19:53:04;;;;;;;8.38;6.00;;;;;;;;;;10340059;28;20285;-76
2023/01/07 19:58:05;;;;;;;10.25;6.82;;;;;;;;;;10337485;28;20575;-76
2023/01/07 20:03:06;;;;;;;4.85;4.45;;;;;;;;;;10339038;28;20220;-76
2023/01/07 20:08:07;;;;;;;4.93;3.97;;;;;;;;;;10337496;28;20223;-76
2023/01/07 20:13:08;;;;;;;4.13;3.78;;;;;;;;;;10340067;28;20771;-76
2023/01/07 20:18:11;;;;;;;4.43;4.13;;;;;;;;;;10336363;28;20228;-75
2023/01/07 20:23:12;;;;;;;4.50;4.20;;;;;;;;;;10327478;28;20579;-77
2023/01/07 20:28:13;;;;;;;5.35;4.40;;;;;;;;;;10324945;28;20239;-76
2023/01/07 20:33:14;;;;;;;3.83;3.53;;;;;;;;;;10332515;28;20714;-76
2023/01/07 20:38:15;;;;;;;3.80;3.53;;;;;;;;;;10349391;28;21040;-76
2023/01/07 20:43:17;;;;;;;2.88;2.78;;;;;;;;;;10339766;28;20221;-76
2023/01/07 20:48:18;;;;;;;3.90;3.50;;;;;;;;;;10351811;28;20232;-77
2023/01/07 20:53:19;;;;;;;2.28;2.08;;;;;;;;;;10337726;28;20307;-78
2023/01/07 20:58:20;;;;;;;3.70;3.40;;;;;;;;;;10331473;28;20244;-77
2023/01/07 21:03:21;;;;;;;3.03;2.88;;;;;;;;;;10331269;28;20669;-77
2023/01/07 21:08:22;;;;;;;2.92;2.72;;;;;;;;;;10342182;28;20220;-76
2023/01/07 21:13:24;;;;;;;2.58;2.47;;;;;;;;;;10340634;28;20219;-76
2023/01/07 21:18:25;;;;;;;2.75;2.53;;;;;;;;;;10337419;28;20226;-76
2023/01/07 21:23:26;;;;;;;2.58;2.47;;;;;;;;;;10333466;28;20862;-76
2023/01/07 21:28:27;;;;;;;2.60;2.38;;;;;;;;;;10335875;28;20340;-76
2023/01/07 21:33:28;;;;;;;2.38;2.28;;;;;;;;;;10333285;28;20246;-76
2023/01/07 21:38:29;;;;;;;2.45;2.25;;;;;;;;;;10345896;28;20655;-76
2023/01/07 21:43:30;;;;;;;2.30;2.20;;;;;;;;;;10338303;28;20258;-76
2023/01/07 21:48:32;;;;;;;2.47;2.30;;;;;;;;;;10343131;28;20429;-77
2023/01/07 21:53:34;;;;;;;2.75;2.55;;;;;;;;;;10346540;28;20243;-77
2023/01/07 21:58:35;;;;;;;2.30;2.20;;;;;;;;;;10336263;28;20240;-76
2023/01/07 22:03:37;;;;;;;2.67;1.88;;;;;;;;;;10365703;28;20244;-76
2023/01/07 22:08:38;;;;;;;4.43;1.58;;;;;;;;;;10337823;28;20232;-77
2023/01/07 22:13:39;;;;;;;2.08;1.98;;;;;;;;;;10338942;28;20220;-76
2023/01/07 22:18:40;;;;;;;1.35;1.35;;;;;;;;;;10321450;28;21084;-77
2023/01/07 22:23:44;;;;;;;1.95;1.80;;;;;;;;;;10331157;28;20236;-75
2023/01/07 22:28:50;;;;;;;3.20;1.80;;;;;;;;;;10302799;28;20228;-75
2023/01/07 22:33:52;;;;;;;2.40;2.30;;;;;;;;;;10334155;28;20928;-75
2023/01/07 22:38:53;;;;;;;1.90;1.58;;;;;;;;;;10332570;28;20224;-75
2023/01/07 22:43:55;;;;;;;1.50;1.50;;;;;;;;;;10334419;28;20642;-75
2023/01/07 22:48:57;;;;;;;2.08;1.80;;;;;;;;;;10330354;28;20219;-75
2023/01/07 22:53:59;;;;;;;2.40;2.20;;;;;;;;;;10336880;28;20351;-75
2023/01/07 22:59:00;;;;;;;2.17;2.08;;;;;;;;;;10316924;28;20216;-75
2023/01/07 23:04:01;;;;;;;2.38;2.28;;;;;;;;;;10317167;28;20212;-74
2023/01/07 23:09:02;;;;;;;2.67;2.38;;;;;;;;;;10323973;28;20247;-76
2023/01/07 23:14:03;;;;;;;2.15;2.05;;;;;;;;;;10365868;28;20213;-75
2023/01/07 23:19:05;;;;;;;2.60;2.40;;;;;;;;;;10344360;28;20224;-75
2023/01/07 23:24:06;;;;;;;2.47;1.90;;;;;;;;;;10340708;28;20247;-76
2023/01/07 23:29:07;;;;;;;2.67;2.47;;;;;;;;;;10342693;28;20235;-75
2023/01/07 23:34:08;;;;;;;2.22;2.13;;;;;;;;;;10339594;28;20232;-76
2023/01/07 23:39:09;;;;;;;2.65;2.47;;;;;;;;;;10342975;28;20211;-75
2023/01/07 23:44:11;;;;;;;2.78;2.55;;;;;;;;;;10347451;28;20232;-75
2023/01/07 23:49:12;;;;;;;3.13;2.92;;;;;;;;;;10349427;28;20348;-75
2023/01/07 23:54:13;;;;;;;2.58;2.47;;;;;;;;;;10350196;28;20223;-75
2023/01/07 23:59:14;;;;;;;2.97;2.78;;;;;;;;;;10336164;28;20220;-75
